createdAt,value
2022-12-15T00:02:38.066Z,99612.19
2022-12-15T00:06:58.884Z,99613.31
2022-12-15T00:11:20.769Z,99626.94
2022-12-15T00:15:41.408Z,99620.66
2022-12-15T00:20:03.151Z,99636.59
2022-12-15T00:24:24.425Z,99638.25
2022-12-15T00:28:44.802Z,99640.13
2022-12-15T00:33:05.315Z,99648.59
2022-12-15T00:37:27.362Z,99639.41
2022-12-15T00:41:30.427Z,99635.53
2022-12-15T00:45:47.511Z,99646.53
2022-12-15T00:50:08.247Z,99640.25
2022-12-15T00:54:30.432Z,99653.53
2022-12-15T00:58:51.058Z,99672.59
2022-12-15T01:03:12.118Z,99665.59
2022-12-15T01:07:33.287Z,99662.78
2022-12-15T01:11:55.394Z,99649.44
2022-12-15T01:16:16.202Z,99664.28
2022-12-15T01:20:19.359Z,99664.63
2022-12-15T01:24:22.382Z,99663.66
2022-12-15T01:28:26.847Z,99671.75
2022-12-15T01:32:30.222Z,99678.03
2022-12-15T01:36:33.291Z,99689.38
2022-12-15T01:40:50.234Z,99701.81
2022-12-15T01:44:55.377Z,99676.34
2022-12-15T01:49:09.145Z,99682.75
2022-12-15T01:53:14.071Z,99698.19
2022-12-15T01:57:21.818Z,99709.88
2022-12-15T02:01:26.452Z,99706.63
2022-12-15T02:05:31.868Z,99696.94
2022-12-15T02:09:34.971Z,99698.41
2022-12-15T02:13:50.041Z,99698.00
2022-12-15T02:18:07.059Z,99706.50
2022-12-15T02:22:25.144Z,99691.56
2022-12-15T02:27:16.140Z,99689.31
2022-12-15T02:31:41.989Z,99695.19
2022-12-15T02:36:06.984Z,99706.78
2022-12-15T02:40:12.015Z,99708.22
2022-12-15T02:44:19.197Z,99712.06
2022-12-15T02:48:33.723Z,99724.88
2022-12-15T02:52:50.294Z,99721.00
2022-12-15T02:57:04.027Z,99724.50
2022-12-15T03:01:17.133Z,99728.38
2022-12-15T03:05:24.117Z,99740.91
2022-12-15T03:09:27.251Z,99746.97
2022-12-15T03:13:30.665Z,99749.78
2022-12-15T03:17:34.094Z,99741.38
2022-12-15T03:21:38.474Z,99751.84
2022-12-15T03:25:41.572Z,99755.09
2022-12-15T03:29:44.633Z,99763.84
2022-12-15T03:33:47.672Z,99770.25
2022-12-15T03:37:52.077Z,99760.13
2022-12-15T03:41:55.140Z,99755.81
2022-12-15T03:45:58.242Z,99763.53
2022-12-15T03:50:01.298Z,99769.44
2022-12-15T03:54:05.755Z,99764.75
2022-12-15T03:58:08.847Z,99759.03
2022-12-15T04:02:13.098Z,99754.94
2022-12-15T04:06:16.265Z,99767.25
2022-12-15T04:10:20.909Z,99749.88
2022-12-15T04:14:23.973Z,99774.50
2022-12-15T04:18:27.039Z,99777.16
2022-12-15T04:22:30.065Z,99778.97
2022-12-15T04:26:52.064Z,99777.66
2022-12-15T04:31:16.009Z,99782.84
2022-12-15T04:35:36.747Z,99779.59
2022-12-15T04:39:59.532Z,99785.84
2022-12-15T04:44:21.839Z,99770.88
2022-12-15T04:48:42.519Z,99777.16
2022-12-15T04:53:02.875Z,99766.91
2022-12-15T04:57:23.676Z,99768.47
2022-12-15T05:01:46.478Z,99779.09
2022-12-15T05:06:07.161Z,99782.59
2022-12-15T05:10:27.664Z,99780.41
2022-12-15T05:14:49.637Z,99806.66
2022-12-15T05:19:11.488Z,99801.34
2022-12-15T05:23:33.098Z,99799.66
2022-12-15T05:27:53.596Z,99802.41
2022-12-15T05:31:56.983Z,99810.16
2022-12-15T05:36:01.445Z,99814.06
2022-12-15T05:40:04.834Z,99822.75
2022-12-15T05:44:08.426Z,99822.19
2022-12-15T05:48:11.527Z,99823.50
2022-12-15T05:52:15.925Z,99832.81
2022-12-15T05:56:18.979Z,99834.16
2022-12-15T06:00:22.303Z,99832.81
2022-12-15T06:04:25.646Z,99836.97
2022-12-15T06:08:30.539Z,99837.09
2022-12-15T06:12:33.639Z,99848.56
2022-12-15T06:16:42.564Z,99843.50
2022-12-15T06:20:58.832Z,99834.78
2022-12-15T06:25:03.557Z,99828.16
2022-12-15T06:29:08.978Z,99843.75
2022-12-15T06:33:12.212Z,99840.69
2022-12-15T06:37:15.429Z,99829.56
2022-12-15T06:41:22.507Z,99827.91
2022-12-15T06:45:25.575Z,99826.22
2022-12-15T06:49:28.625Z,99825.13
2022-12-15T06:53:32.182Z,99834.78
2022-12-15T06:57:37.397Z,99839.75
2022-12-15T07:01:41.938Z,99840.00
2022-12-15T07:05:46.479Z,99842.88
2022-12-15T07:09:49.860Z,99852.97
2022-12-15T07:13:54.949Z,99871.13
2022-12-15T07:17:58.012Z,99867.47
2022-12-15T07:22:01.550Z,99864.63
2022-12-15T07:26:11.089Z,99873.34
2022-12-15T07:30:17.670Z,99885.16
2022-12-15T07:34:21.004Z,99887.09
2022-12-15T07:38:24.154Z,99883.44
2022-12-15T07:42:30.174Z,99876.16
2022-12-15T07:46:34.710Z,99888.13
2022-12-15T07:50:39.736Z,99888.72
2022-12-15T07:54:42.816Z,99884.09
2022-12-15T07:58:46.025Z,99886.88
2022-12-15T08:02:50.832Z,99888.81
2022-12-15T08:06:55.071Z,99875.38
2022-12-15T08:10:58.128Z,99874.34
2022-12-15T08:15:01.247Z,99874.44
2022-12-15T08:19:06.910Z,99897.03
2022-12-15T08:23:09.994Z,99889.03
2022-12-15T08:27:13.276Z,99883.44
2022-12-15T08:31:18.780Z,99893.22
2022-12-15T08:35:54.404Z,99896.63
2022-12-15T08:39:46.434Z,99900.28
2022-12-15T08:43:50.471Z,99903.91
2022-12-15T08:47:53.586Z,99907.44
2022-12-15T08:51:58.074Z,99916.06
2022-12-15T08:56:03.739Z,99920.34
2022-12-15T09:00:08.072Z,99923.50
2022-12-15T09:04:11.703Z,99923.53
2022-12-15T09:08:18.826Z,99925.47
2022-12-15T09:12:22.788Z,99930.97
2022-12-15T09:16:29.017Z,99943.19
2022-12-15T09:20:32.675Z,99951.50
2022-12-15T09:24:37.859Z,99930.66
2022-12-15T09:28:43.034Z,99932.38
2022-12-15T09:32:46.811Z,99930.44
2022-12-15T09:36:50.309Z,99923.97
2022-12-15T09:40:55.299Z,99927.34
2022-12-15T09:45:04.419Z,99918.72
2022-12-15T09:49:18.163Z,99921.31
2022-12-15T09:53:53.635Z,99929.63
2022-12-15T09:57:55.061Z,99940.56
2022-12-15T10:02:19.948Z,99926.38
2022-12-15T10:06:33.111Z,99924.34
2022-12-15T10:10:54.383Z,99918.38
2022-12-15T10:15:12.090Z,99919.22
2022-12-15T10:19:20.339Z,99929.16
2022-12-15T10:23:23.438Z,99933.34
2022-12-15T10:28:00.539Z,99929.16
2022-12-15T10:32:11.383Z,99926.59
2022-12-15T10:36:17.656Z,99931.03
2022-12-15T10:40:50.245Z,99928.41
2022-12-15T10:44:56.491Z,99931.53
2022-12-15T10:49:22.310Z,99930.66
2022-12-15T10:53:41.259Z,99929.25
2022-12-15T10:57:59.917Z,99939.88
2022-12-15T11:02:29.803Z,99934.44
2022-12-15T11:06:37.085Z,99924.69
2022-12-15T11:11:18.433Z,99926.03
2022-12-15T11:15:40.432Z,99918.44
2022-12-15T11:19:56.583Z,99911.38
2022-12-15T11:24:10.752Z,99919.78
2022-12-15T11:28:19.528Z,99908.31
2022-12-15T11:32:26.322Z,99899.03
2022-12-15T11:36:58.483Z,99898.44
2022-12-15T11:41:12.640Z,99893.00
2022-12-15T11:45:22.424Z,99885.88
2022-12-15T11:49:55.694Z,99889.28
2022-12-15T11:54:11.208Z,99880.72
2022-12-15T11:58:40.409Z,99880.84
2022-12-15T12:03:21.262Z,99891.13
2022-12-15T12:07:40.136Z,99895.03
2022-12-15T12:11:51.525Z,99895.91
2022-12-15T12:16:09.476Z,99896.63
2022-12-15T12:20:21.901Z,99897.91
2022-12-15T12:24:31.704Z,99900.97
2022-12-15T12:28:44.477Z,99904.31
2022-12-15T12:33:24.492Z,99893.69
2022-12-15T12:37:34.995Z,99878.09
2022-12-15T12:41:45.168Z,99872.66
2022-12-15T12:45:56.106Z,99868.31
2022-12-15T12:50:04.866Z,99864.63
2022-12-15T12:54:41.912Z,99864.31
2022-12-15T12:58:45.476Z,99843.19
2022-12-15T13:02:58.114Z,99841.97
2022-12-15T13:07:08.853Z,99835.69
2022-12-15T13:12:00.874Z,99821.06
2022-12-15T13:16:10.007Z,99815.75
2022-12-15T13:20:32.182Z,99807.22
2022-12-15T13:24:42.807Z,99799.19
2022-12-15T13:28:50.696Z,99795.97
2022-12-15T13:32:56.217Z,99791.81
2022-12-15T13:37:03.173Z,99784.41
2022-12-15T13:41:23.445Z,99773.50
2022-12-15T13:45:44.612Z,99768.53
2022-12-15T13:54:29.053Z,99769.09
2022-12-15T13:58:42.012Z,99768.88
2022-12-15T14:02:45.688Z,99772.38
2022-12-15T14:06:51.636Z,99768.84
2022-12-15T14:10:56.779Z,99758.69
2022-12-15T14:15:01.444Z,99760.25
2022-12-15T14:19:14.219Z,99752.94
2022-12-15T14:23:20.906Z,99740.59
2022-12-15T14:27:25.591Z,99737.38
2022-12-15T14:31:32.259Z,99739.56
2022-12-15T14:35:42.418Z,99722.50
2022-12-15T14:39:50.401Z,99716.06
2022-12-15T14:44:37.085Z,99730.03
2022-12-15T14:48:40.996Z,99734.41
2022-12-15T14:52:46.285Z,99723.06
2022-12-15T14:56:58.133Z,99738.25
2022-12-15T15:01:02.830Z,99740.91
2022-12-15T15:03:11.640Z,99774.19
2022-12-15T15:05:28.080Z,99740.78
2022-12-15T15:09:34.213Z,99748.91
2022-12-15T15:13:40.891Z,99749.28
2022-12-15T15:17:50.047Z,99755.53
2022-12-15T15:21:55.149Z,99752.16
2022-12-15T15:26:08.171Z,99763.81
2022-12-15T15:30:22.585Z,99761.97
2022-12-15T15:34:26.991Z,99781.47
2022-12-15T15:38:35.065Z,99792.28
2022-12-15T15:42:39.096Z,99804.16
2022-12-15T15:46:47.696Z,99819.75
2022-12-15T15:51:14.853Z,99831.94
2022-12-15T15:55:26.660Z,99835.31
2022-12-15T15:59:31.164Z,99847.78
2022-12-15T16:03:35.463Z,99866.19
2022-12-15T16:07:39.795Z,99864.59
2022-12-15T16:11:45.373Z,99873.41
2022-12-15T16:15:49.567Z,99871.66
2022-12-15T16:19:52.805Z,99879.16
2022-12-15T16:23:58.048Z,99881.59
2022-12-15T16:28:02.568Z,99889.22
2022-12-15T16:32:06.055Z,99891.63
2022-12-15T16:36:13.203Z,99886.53
2022-12-15T16:40:22.086Z,99897.97
2022-12-15T16:44:29.396Z,99894.34
2022-12-15T16:48:33.254Z,99910.97
2022-12-15T16:52:36.600Z,99907.03
2022-12-15T16:56:39.886Z,99917.03
2022-12-15T17:00:46.614Z,99919.72
2022-12-15T17:04:50.375Z,99914.03
2022-12-15T17:08:56.198Z,99910.38
2022-12-15T17:13:08.690Z,99901.88
2022-12-15T17:17:16.049Z,99912.63
2022-12-15T17:21:21.314Z,99916.88
2022-12-15T17:25:46.092Z,99926.41
2022-12-15T17:29:49.827Z,99943.72
2022-12-15T17:33:54.325Z,99943.59
2022-12-15T17:37:57.490Z,99949.22
2022-12-15T17:42:02.098Z,99954.16
2022-12-15T17:46:06.160Z,99959.31
2022-12-15T17:50:11.548Z,99958.91
2022-12-15T17:54:16.019Z,99953.41
2022-12-15T17:58:20.736Z,99948.88
2022-12-15T18:02:24.125Z,99949.06
2022-12-15T18:06:29.074Z,99942.28
2022-12-15T18:10:35.022Z,99951.13
2022-12-15T18:14:39.261Z,99945.31
2022-12-15T18:18:44.293Z,99947.75
2022-12-15T18:22:50.159Z,99943.44
2022-12-15T18:26:53.954Z,99923.47
2022-12-15T18:31:01.823Z,99918.63
2022-12-15T18:35:14.262Z,99905.94
2022-12-15T18:39:24.037Z,99906.38
2022-12-15T18:43:31.263Z,99902.09
2022-12-15T18:47:34.658Z,99914.94
2022-12-15T18:51:39.178Z,99917.22
2022-12-15T18:55:43.858Z,99913.09
2022-12-15T18:59:47.117Z,99925.72
2022-12-15T19:03:50.970Z,99926.44
2022-12-15T19:07:59.811Z,99925.41
2022-12-15T19:12:19.703Z,99912.78
2022-12-15T19:16:23.310Z,99903.66
2022-12-15T19:20:44.054Z,99895.06
2022-12-15T19:24:56.051Z,99903.16
2022-12-15T19:29:00.883Z,99914.75
2022-12-15T19:33:04.254Z,99923.50
2022-12-15T19:37:12.708Z,99912.84
2022-12-15T19:41:18.658Z,99908.38
2022-12-15T19:45:25.575Z,99911.66
2022-12-15T19:49:29.127Z,99916.59
2022-12-15T19:53:33.043Z,99919.91
2022-12-15T19:57:36.499Z,99926.47
2022-12-15T20:01:41.088Z,99924.88
2022-12-15T20:05:44.635Z,99925.88
2022-12-15T20:09:47.723Z,99925.38
2022-12-15T20:13:51.964Z,99922.38
2022-12-15T20:17:57.533Z,99924.25
2022-12-15T20:22:03.500Z,99927.88
2022-12-15T20:26:07.442Z,99919.66
2022-12-15T20:30:18.874Z,99912.56
2022-12-15T20:34:23.634Z,99907.03
2022-12-15T20:38:31.826Z,99901.72
2022-12-15T20:42:35.144Z,99903.88
2022-12-15T20:46:39.155Z,99898.41
2022-12-15T20:50:47.468Z,99906.31
2022-12-15T20:54:51.295Z,99900.38
2022-12-15T20:58:57.135Z,99902.31
2022-12-15T21:03:01.032Z,99916.63
2022-12-15T21:07:07.387Z,99916.38
2022-12-15T21:11:16.847Z,99923.38
2022-12-15T21:15:21.857Z,99919.28
2022-12-15T21:19:25.311Z,99910.59
2022-12-15T21:23:32.390Z,99916.75
2022-12-15T21:27:35.451Z,99912.41
2022-12-15T21:31:38.828Z,99913.00
2022-12-15T21:35:46.145Z,99917.84
2022-12-15T21:39:50.645Z,99920.16
2022-12-15T21:43:54.983Z,99927.50
2022-12-15T21:48:16.108Z,99925.09
2022-12-15T21:52:19.834Z,99927.25
2022-12-15T21:56:24.250Z,99930.03
2022-12-15T22:00:27.669Z,99936.66
2022-12-15T22:04:33.104Z,99937.19
2022-12-15T22:08:36.335Z,99945.88
2022-12-15T22:12:42.852Z,99944.38
2022-12-15T22:16:45.900Z,99933.69
2022-12-15T22:20:50.064Z,99934.03
2022-12-15T22:24:53.117Z,99931.66
2022-12-15T22:29:00.564Z,99940.00
2022-12-15T22:33:06.876Z,99936.75
2022-12-15T22:37:10.407Z,99937.69
2022-12-15T22:41:19.403Z,99944.94
2022-12-15T22:45:25.017Z,99956.09
2022-12-15T22:49:31.325Z,99952.22
2022-12-15T22:53:36.346Z,99948.47
2022-12-15T22:57:39.554Z,99943.50
2022-12-15T23:01:44.910Z,99944.94
2022-12-15T23:05:48.944Z,99945.22
2022-12-15T23:10:12.311Z,99951.59
2022-12-15T23:14:17.134Z,99941.09
2022-12-15T23:18:21.566Z,99944.41
2022-12-15T23:22:24.669Z,99933.50
2022-12-15T23:26:27.802Z,99944.19
2022-12-15T23:30:30.985Z,99950.78
2022-12-15T23:34:35.441Z,99954.31
2022-12-15T23:38:38.657Z,99955.66
2022-12-15T23:42:41.757Z,99954.41
2022-12-15T23:46:46.807Z,99955.66
2022-12-15T23:50:51.368Z,99955.38
2022-12-15T23:54:54.987Z,99956.78
2022-12-15T23:59:00.432Z,99945.47
